CYET

Edson Airport

Edson, Alberta, Canada
METAR CYET 160300Z AUTO VRB02KT 9SM CLR M08/M11 A2997 RMK SLP198
Observed Flight Rules
Dec-16 @ 03:00 UTC (36 minutes ago) Visual Flight Rules
Wind Visibility Clouds
Variable at 2 knots 9 miles
  • Clear skies
Temperatures Readings
Current -8°C / 18°F
Dewpoint -11°C / 12°F
Humidity 79%
Altimeter 29.97" Hg
Pressure 1019.8 hPa
Elevation 925
METAR CYET 160300Z AUTO VRB02KT 9SM CLR M08/M11 A2997 RMK SLP198
Observed Flight Rules
Dec-16 @ 03:00 UTC
(36 minutes ago)
VFR
Wind Visibility
Variable at 2 knots 9 miles
Clouds
  • Clear skies
Temperature Dewpoint
-8°C / 18°F -11°C / 12°F
Humidity Altimeter Pressure
79% 29.97" Hg 1019.8 hPa